createdAt,value
2023-04-11T00:01:40.771Z,22.59
2023-04-11T00:04:07.317Z,22.60
2023-04-11T00:06:33.732Z,22.60
2023-04-11T00:09:00.181Z,22.61
2023-04-11T00:11:26.542Z,22.58
2023-04-11T00:13:52.865Z,22.57
2023-04-11T00:16:19.220Z,22.56
2023-04-11T00:18:45.599Z,22.60
2023-04-11T00:21:12.001Z,22.62
2023-04-11T00:23:38.354Z,22.58
2023-04-11T00:26:04.723Z,22.54
2023-04-11T00:28:31.050Z,22.56
2023-04-11T00:30:57.412Z,22.58
2023-04-11T00:33:23.774Z,22.59
2023-04-11T00:35:50.184Z,22.57
2023-04-11T00:38:16.559Z,22.55
2023-04-11T00:40:42.873Z,22.52
2023-04-11T00:43:09.266Z,22.54
2023-04-11T00:45:35.719Z,22.56
2023-04-11T00:48:02.197Z,22.55
2023-04-11T00:50:28.877Z,22.60
2023-04-11T00:52:55.194Z,22.49
2023-04-11T00:55:21.575Z,22.54
2023-04-11T00:57:47.989Z,22.51
2023-04-11T01:00:14.440Z,22.50
2023-04-11T01:02:40.882Z,22.54
2023-04-11T01:05:07.343Z,22.50
2023-04-11T01:07:33.656Z,22.50
2023-04-11T01:09:59.971Z,22.52
2023-04-11T01:12:26.309Z,22.50
2023-04-11T01:14:52.637Z,22.53
2023-04-11T01:17:19.054Z,22.52
2023-04-11T01:19:45.418Z,22.49
2023-04-11T01:22:11.753Z,22.50
2023-04-11T01:24:38.141Z,22.48
2023-04-11T01:27:04.484Z,22.48
2023-04-11T01:29:31.058Z,22.48
2023-04-11T01:31:57.457Z,22.45
2023-04-11T01:34:23.798Z,22.48
2023-04-11T01:36:50.155Z,22.50
2023-04-11T01:39:16.559Z,22.52
2023-04-11T01:41:43.229Z,22.48
2023-04-11T01:44:09.576Z,22.48
2023-04-11T01:46:35.983Z,22.49
2023-04-11T01:49:02.375Z,22.43
2023-04-11T01:51:28.728Z,22.47
2023-04-11T01:53:55.039Z,22.47
2023-04-11T01:56:21.351Z,22.48
2023-04-11T01:58:47.711Z,22.48
2023-04-11T02:01:14.078Z,22.46
2023-04-11T02:03:40.849Z,22.48
2023-04-11T02:06:07.294Z,22.44
2023-04-11T02:08:33.626Z,22.42
2023-04-11T02:11:00.052Z,22.41
2023-04-11T02:13:26.371Z,22.42
2023-04-11T02:15:52.760Z,22.40
2023-04-11T02:18:19.252Z,22.47
2023-04-11T02:20:45.669Z,22.45
2023-04-11T02:23:12.156Z,22.44
2023-04-11T02:25:38.471Z,22.42
2023-04-11T02:28:07.423Z,22.46
2023-04-11T02:30:34.497Z,22.42
2023-04-11T02:33:01.201Z,22.42
2023-04-11T02:35:27.578Z,22.43
2023-04-11T02:37:53.953Z,22.43
2023-04-11T02:40:20.320Z,22.42
2023-04-11T02:42:46.678Z,22.41
2023-04-11T02:45:12.994Z,22.45
2023-04-11T02:47:39.464Z,22.43
2023-04-11T02:50:05.919Z,22.42
2023-04-11T02:52:32.237Z,22.44
2023-04-11T02:54:58.594Z,22.42
2023-04-11T02:57:24.937Z,22.40
2023-04-11T02:59:51.246Z,22.41
2023-04-11T03:02:17.789Z,22.40
2023-04-11T03:04:44.274Z,22.40
2023-04-11T03:07:10.590Z,22.42
2023-04-11T03:09:36.963Z,22.40
2023-04-11T03:12:03.498Z,22.41
2023-04-11T03:14:29.850Z,22.40
2023-04-11T03:16:56.244Z,22.39
2023-04-11T03:19:22.605Z,22.38
2023-04-11T03:21:48.917Z,22.36
2023-04-11T03:24:15.230Z,22.37
2023-04-11T03:26:41.570Z,22.38
2023-04-11T03:29:07.952Z,22.38
2023-04-11T03:31:34.319Z,22.41
2023-04-11T03:34:00.755Z,22.38
2023-04-11T03:36:27.115Z,22.34
2023-04-11T03:38:53.650Z,22.34
2023-04-11T03:41:20.226Z,22.36
2023-04-11T03:43:46.581Z,22.38
2023-04-11T03:46:12.969Z,22.32
2023-04-11T03:48:39.301Z,22.37
2023-04-11T03:51:05.631Z,22.36
2023-04-11T03:53:32.014Z,22.36
2023-04-11T03:55:58.339Z,22.35
2023-04-11T03:58:24.915Z,22.34
2023-04-11T04:00:51.323Z,22.32
2023-04-11T04:03:17.767Z,22.34
2023-04-11T04:05:44.288Z,22.29
2023-04-11T04:08:10.644Z,22.30
2023-04-11T04:10:37.040Z,22.36
2023-04-11T04:13:03.351Z,22.35
2023-04-11T04:15:29.680Z,22.34
2023-04-11T04:17:56.087Z,22.35
2023-04-11T04:20:22.433Z,22.33
2023-04-11T04:22:48.812Z,22.30
2023-04-11T04:25:15.259Z,22.29
2023-04-11T04:27:41.623Z,22.34
2023-04-11T04:30:08.008Z,22.33
2023-04-11T04:32:34.409Z,22.35
2023-04-11T04:35:00.778Z,22.28
2023-04-11T04:37:27.342Z,22.30
2023-04-11T04:39:53.768Z,22.34
2023-04-11T04:42:20.116Z,22.35
2023-04-11T04:44:46.499Z,22.32
2023-04-11T04:47:12.904Z,22.33
2023-04-11T04:49:39.230Z,22.33
2023-04-11T04:52:05.603Z,22.33
2023-04-11T04:54:31.933Z,22.29
2023-04-11T04:56:58.291Z,22.28
2023-04-11T04:59:24.680Z,22.29
2023-04-11T05:01:51.140Z,22.27
2023-04-11T05:04:17.686Z,22.29
2023-04-11T05:06:44.249Z,22.31
2023-04-11T05:09:10.579Z,22.32
2023-04-11T05:11:37.073Z,22.30
2023-04-11T05:14:03.414Z,22.32
2023-04-11T05:16:29.814Z,22.30
2023-04-11T05:18:56.143Z,22.31
2023-04-11T05:21:22.481Z,22.29
2023-04-11T05:23:48.843Z,22.32
2023-04-11T05:26:15.214Z,22.32
2023-04-11T05:28:41.633Z,22.27
2023-04-11T05:31:08.258Z,22.29
2023-04-11T05:33:34.620Z,22.29
2023-04-11T05:36:00.998Z,22.28
2023-04-11T05:38:27.486Z,22.29
2023-04-11T05:40:53.862Z,22.27
2023-04-11T05:43:20.208Z,22.30
2023-04-11T05:45:46.628Z,22.30
2023-04-11T05:48:14.827Z,22.25
2023-04-11T05:50:42.219Z,22.28
2023-04-11T05:53:08.660Z,22.31
2023-04-11T05:55:35.122Z,22.27
2023-04-11T05:58:01.507Z,22.29
2023-04-11T06:00:27.951Z,22.32
2023-04-11T06:02:54.367Z,22.25
2023-04-11T06:05:20.842Z,22.25
2023-04-11T06:07:47.189Z,22.27
2023-04-11T06:10:13.735Z,22.25
2023-04-11T06:12:40.062Z,22.33
2023-04-11T06:15:06.372Z,22.32
2023-04-11T06:17:32.810Z,22.28
2023-04-11T06:19:59.211Z,22.29
2023-04-11T06:22:25.574Z,22.25
2023-04-11T06:24:51.895Z,22.30
2023-04-11T06:27:18.247Z,22.29
2023-04-11T06:29:44.570Z,22.31
2023-04-11T06:32:10.935Z,22.33
2023-04-11T06:34:37.343Z,22.32
2023-04-11T06:37:03.709Z,22.31
2023-04-11T06:39:30.068Z,22.28
2023-04-11T06:41:56.547Z,22.30
2023-04-11T06:44:23.006Z,22.37
2023-04-11T06:46:49.390Z,22.38
2023-04-11T06:49:15.749Z,22.36
2023-04-11T06:51:42.096Z,22.32
2023-04-11T06:54:08.490Z,22.39
2023-04-11T06:56:34.806Z,22.35
2023-04-11T06:59:01.118Z,22.36
2023-04-11T07:01:27.488Z,22.36
2023-04-11T07:03:54.230Z,22.41
2023-04-11T07:06:20.796Z,22.36
2023-04-11T07:08:47.278Z,22.41
2023-04-11T07:11:13.600Z,22.37
2023-04-11T07:13:39.996Z,22.41
2023-04-11T07:16:06.337Z,22.41
2023-04-11T07:18:32.811Z,22.41
2023-04-11T07:20:59.116Z,22.37
2023-04-11T07:23:25.480Z,22.36
2023-04-11T07:25:51.821Z,22.38
2023-04-11T07:28:18.152Z,22.39
2023-04-11T07:30:44.500Z,22.40
2023-04-11T07:33:11.091Z,22.41
2023-04-11T07:35:37.454Z,22.37
2023-04-11T07:38:03.788Z,22.34
2023-04-11T07:40:30.247Z,22.41
2023-04-11T07:42:56.629Z,22.45
2023-04-11T07:45:23.080Z,22.35
2023-04-11T07:47:49.498Z,22.41
2023-04-11T07:50:15.841Z,22.37
2023-04-11T07:52:42.223Z,22.40
2023-04-11T07:55:08.588Z,22.38
2023-04-11T07:57:34.896Z,22.35
2023-04-11T08:00:01.374Z,22.39
2023-04-11T08:02:27.837Z,22.44
2023-04-11T08:04:54.336Z,22.44
2023-04-11T08:07:20.696Z,22.41
2023-04-11T08:09:47.061Z,22.41
2023-04-11T08:12:13.399Z,22.33
2023-04-11T08:14:39.716Z,22.36
2023-04-11T08:17:14.625Z,22.38
2023-04-11T08:19:47.756Z,22.41
2023-04-11T08:22:14.083Z,22.39
2023-04-11T08:24:40.399Z,22.38
2023-04-11T08:27:06.776Z,22.39
2023-04-11T08:29:33.140Z,22.43
2023-04-11T08:31:59.452Z,22.39
2023-04-11T08:34:25.783Z,22.36
2023-04-11T08:36:52.167Z,22.39
2023-04-11T08:39:18.504Z,22.41
2023-04-11T08:41:44.840Z,22.38
2023-04-11T08:44:11.270Z,22.40
2023-04-11T08:46:37.892Z,22.41
2023-04-11T08:49:04.306Z,22.41
2023-04-11T08:51:30.648Z,22.48
2023-04-11T08:53:57.157Z,22.53
2023-04-11T08:56:23.664Z,22.48
2023-04-11T08:58:50.123Z,22.50
2023-04-11T09:01:16.502Z,22.45
2023-04-11T09:03:42.979Z,22.49
2023-04-11T09:06:09.347Z,22.46
2023-04-11T09:08:35.678Z,22.40
2023-04-11T09:11:02.138Z,22.43
2023-04-11T09:13:28.547Z,22.50
2023-04-11T09:15:55.257Z,22.50
2023-04-11T09:18:21.730Z,22.46
2023-04-11T09:20:48.069Z,22.43
2023-04-11T09:23:14.450Z,22.43
2023-04-11T09:25:40.832Z,22.46
2023-04-11T09:28:07.344Z,22.44
2023-04-11T09:30:33.688Z,22.36
2023-04-11T09:33:00.179Z,22.42
2023-04-11T09:35:26.574Z,22.41
2023-04-11T09:37:52.949Z,22.44
2023-04-11T09:40:19.336Z,22.39
2023-04-11T09:42:45.783Z,22.38
2023-04-11T09:45:12.164Z,22.39
2023-04-11T09:47:38.577Z,22.42
2023-04-11T09:50:04.938Z,22.41
2023-04-11T09:52:31.458Z,22.44
2023-04-11T09:54:57.800Z,22.42
2023-04-11T09:57:24.226Z,22.43
2023-04-11T09:59:50.859Z,22.44
2023-04-11T10:02:17.309Z,22.47
2023-04-11T10:04:43.896Z,22.48
2023-04-11T10:07:10.258Z,22.43
2023-04-11T10:09:36.623Z,22.46
2023-04-11T10:12:03.001Z,22.45
2023-04-11T10:14:29.512Z,22.43
2023-04-11T10:16:55.843Z,22.41
2023-04-11T10:19:22.193Z,22.41
2023-04-11T10:21:48.581Z,22.46
2023-04-11T10:24:17.244Z,22.48
2023-04-11T10:26:44.372Z,22.48
2023-04-11T10:29:10.920Z,22.43
2023-04-11T10:31:37.339Z,22.45
2023-04-11T10:34:04.147Z,22.49
2023-04-11T10:36:30.522Z,22.53
2023-04-11T10:38:56.938Z,22.52
2023-04-11T10:41:23.272Z,22.48
2023-04-11T10:43:49.585Z,22.44
2023-04-11T10:46:15.989Z,22.38
2023-04-11T10:48:42.314Z,22.41
2023-04-11T10:51:08.693Z,22.47
2023-04-11T10:53:35.086Z,22.44
2023-04-11T10:56:01.470Z,22.58
2023-04-11T10:58:27.868Z,22.57
2023-04-11T11:00:54.436Z,22.58
2023-04-11T11:03:20.997Z,22.63
2023-04-11T11:05:47.496Z,22.66
2023-04-11T11:08:13.829Z,22.64
2023-04-11T11:10:40.159Z,22.57
2023-04-11T11:13:06.615Z,22.56
2023-04-11T11:15:33.020Z,22.58
2023-04-11T11:17:59.451Z,22.55
2023-04-11T11:20:25.828Z,22.55
2023-04-11T11:22:52.152Z,22.52
2023-04-11T11:25:18.462Z,22.61
2023-04-11T11:27:45.065Z,22.63
2023-04-11T11:30:11.400Z,22.57
2023-04-11T11:32:37.966Z,22.60
2023-04-11T11:35:04.529Z,22.54
2023-04-11T11:37:30.905Z,22.52
2023-04-11T11:39:57.220Z,22.50
2023-04-11T11:42:23.572Z,22.54
2023-04-11T11:44:49.879Z,22.52
2023-04-11T11:47:16.250Z,22.56
2023-04-11T11:49:42.607Z,22.60
2023-04-11T11:52:08.926Z,22.58
2023-04-11T11:54:35.266Z,22.58
2023-04-11T11:57:01.637Z,22.50
2023-04-11T11:59:28.007Z,22.54
2023-04-11T12:01:54.421Z,22.47
2023-04-11T12:04:21.013Z,22.57
2023-04-11T12:06:47.473Z,22.54
2023-04-11T12:09:13.810Z,22.57
2023-04-11T12:11:40.205Z,22.57
2023-04-11T12:14:06.582Z,22.58
2023-04-11T12:16:33.032Z,22.56
2023-04-11T12:18:59.421Z,22.60
2023-04-11T12:21:25.822Z,22.57
2023-04-11T12:23:52.210Z,22.63
2023-04-11T12:26:18.836Z,22.62
2023-04-11T12:28:45.154Z,22.66
2023-04-11T12:31:11.575Z,22.66
2023-04-11T12:33:37.975Z,22.65
2023-04-11T12:36:04.361Z,22.61
2023-04-11T12:38:30.813Z,22.61
2023-04-11T12:41:19.863Z,22.62
2023-04-11T12:43:43.584Z,22.59
2023-04-11T12:46:09.938Z,22.56
2023-04-11T12:48:36.270Z,22.61
2023-04-11T12:51:02.612Z,22.63
2023-04-11T12:53:28.971Z,22.60
2023-04-11T12:55:55.601Z,22.63
2023-04-11T12:58:22.116Z,22.66
2023-04-11T13:00:48.441Z,22.62
2023-04-11T13:03:14.944Z,22.57
2023-04-11T13:05:41.537Z,22.61
2023-04-11T13:08:07.922Z,22.62
2023-04-11T13:10:34.482Z,22.57
2023-04-11T13:13:11.629Z,22.56
2023-04-11T13:15:43.589Z,22.60
2023-04-11T13:18:09.989Z,22.62
2023-04-11T13:20:36.594Z,22.53
2023-04-11T13:23:02.974Z,22.60
2023-04-11T13:25:29.365Z,22.58
2023-04-11T13:27:55.785Z,22.60
2023-04-11T13:30:22.160Z,22.60
2023-04-11T13:32:48.560Z,22.61
2023-04-11T13:35:14.916Z,22.69
2023-04-11T13:37:41.271Z,22.62
2023-04-11T13:40:07.603Z,22.65
2023-04-11T13:42:33.994Z,22.53
2023-04-11T13:45:00.401Z,22.59
2023-04-11T13:47:26.826Z,22.63
2023-04-11T13:49:53.180Z,22.63
2023-04-11T13:52:19.503Z,22.62
2023-04-11T13:54:45.851Z,22.57
2023-04-11T13:57:12.182Z,22.62
2023-04-11T13:59:38.550Z,22.58
2023-04-11T14:02:04.961Z,22.61
2023-04-11T14:04:31.363Z,22.58
2023-04-11T14:06:57.756Z,22.58
2023-04-11T14:09:24.083Z,22.62
2023-04-11T14:11:50.437Z,22.58
2023-04-11T14:14:17.248Z,22.62
2023-04-11T14:16:43.603Z,22.61
2023-04-11T14:19:09.922Z,22.59
2023-04-11T14:21:36.313Z,22.59
2023-04-11T14:24:02.680Z,22.61
2023-04-11T14:26:38.132Z,22.60
2023-04-11T14:29:04.449Z,22.57
2023-04-11T14:31:30.968Z,22.59
2023-04-11T14:33:57.589Z,22.57
2023-04-11T14:36:24.135Z,22.57
2023-04-11T14:38:50.513Z,22.55
2023-04-11T14:41:16.850Z,22.58
2023-04-11T14:43:43.166Z,22.59
2023-04-11T14:46:09.564Z,22.59
2023-04-11T14:48:35.989Z,22.57
2023-04-11T14:51:02.362Z,22.57
2023-04-11T14:53:28.681Z,22.54
2023-04-11T14:55:55.091Z,22.54
2023-04-11T14:58:21.446Z,22.56
2023-04-11T15:00:47.807Z,22.55
2023-04-11T15:03:14.276Z,22.56
2023-04-11T15:05:40.662Z,22.61
2023-04-11T15:08:07.065Z,22.57
2023-04-11T15:10:33.368Z,22.58
2023-04-11T15:12:59.740Z,22.56
2023-04-11T15:15:26.189Z,22.56
2023-04-11T15:17:52.598Z,22.57
2023-04-11T15:20:18.939Z,22.49
2023-04-11T15:22:45.288Z,22.50
2023-04-11T15:25:11.634Z,22.48
2023-04-11T15:27:37.951Z,22.47
2023-04-11T15:30:04.247Z,22.51
2023-04-11T15:32:30.645Z,22.51
2023-04-11T15:34:57.013Z,22.49
2023-04-11T15:37:23.375Z,22.52
2023-04-11T15:39:49.754Z,22.49
2023-04-11T15:42:16.085Z,22.54
2023-04-11T15:44:42.430Z,22.48
2023-04-11T15:47:08.825Z,22.51
2023-04-11T15:49:35.212Z,22.41
2023-04-11T15:52:01.528Z,22.45
2023-04-11T15:54:27.879Z,22.46
2023-04-11T15:56:54.242Z,22.44
2023-04-11T15:59:20.570Z,22.48
2023-04-11T16:01:46.977Z,22.42
2023-04-11T16:04:13.440Z,22.45
2023-04-11T16:06:39.865Z,22.46
2023-04-11T16:09:06.268Z,22.44
2023-04-11T16:11:32.614Z,22.44
2023-04-11T16:13:59.074Z,22.44
2023-04-11T16:16:25.542Z,22.42
2023-04-11T16:18:51.927Z,22.41
2023-04-11T16:21:18.314Z,22.39
2023-04-11T16:23:44.671Z,22.43
2023-04-11T16:26:11.012Z,22.37
2023-04-11T16:28:37.371Z,22.40
2023-04-11T16:31:03.681Z,22.38
2023-04-11T16:33:30.158Z,22.38
2023-04-11T16:35:56.572Z,22.37
2023-04-11T16:38:22.939Z,22.38
2023-04-11T16:40:49.597Z,22.39
2023-04-11T16:43:15.915Z,22.41
2023-04-11T16:45:42.320Z,22.39
2023-04-11T16:48:08.706Z,22.36
2023-04-11T16:50:35.093Z,22.38
2023-04-11T16:53:01.431Z,22.39
2023-04-11T16:55:27.737Z,22.44
2023-04-11T16:57:54.061Z,22.43
2023-04-11T17:00:20.486Z,22.40
2023-04-11T17:02:46.908Z,22.40
2023-04-11T17:05:13.351Z,22.44
2023-04-11T17:07:39.709Z,22.44
2023-04-11T17:10:06.006Z,22.42
2023-04-11T17:12:32.366Z,22.43
2023-04-11T17:14:58.674Z,22.37
2023-04-11T17:17:25.081Z,22.37
2023-04-11T17:19:51.475Z,22.39
2023-04-11T17:22:17.973Z,22.38
2023-04-11T17:24:44.323Z,22.38
2023-04-11T17:27:10.652Z,22.40
2023-04-11T17:29:36.970Z,22.35
2023-04-11T17:32:03.328Z,22.35
2023-04-11T17:34:29.678Z,22.40
2023-04-11T17:36:55.982Z,22.36
2023-04-11T17:39:22.277Z,22.32
2023-04-11T17:41:48.704Z,22.36
2023-04-11T17:44:15.021Z,22.31
2023-04-11T17:46:41.487Z,22.34
2023-04-11T17:49:07.899Z,22.34
2023-04-11T17:51:34.263Z,22.34
2023-04-11T17:54:00.599Z,22.29
2023-04-11T17:56:26.977Z,22.33
2023-04-11T17:58:53.301Z,22.33
2023-04-11T18:01:19.650Z,22.35
2023-04-11T18:03:46.129Z,22.28
2023-04-11T18:06:12.509Z,22.33
2023-04-11T18:08:50.594Z,22.33
2023-04-11T18:11:17.980Z,22.33
2023-04-11T18:13:44.310Z,22.30
2023-04-11T18:16:10.700Z,22.28
2023-04-11T18:18:37.002Z,22.32
2023-04-11T18:21:05.050Z,22.33
2023-04-11T18:23:33.554Z,22.32
2023-04-11T18:25:59.951Z,22.27
2023-04-11T18:28:26.302Z,22.34
2023-04-11T18:30:52.606Z,22.34
2023-04-11T18:33:20.650Z,22.31
2023-04-11T18:35:47.233Z,22.31
2023-04-11T18:38:13.645Z,22.30
2023-04-11T18:40:40.015Z,22.26
2023-04-11T18:43:06.448Z,22.25
2023-04-11T18:45:32.830Z,22.25
2023-04-11T18:47:59.356Z,22.23
2023-04-11T18:50:25.784Z,22.24
2023-04-11T18:52:54.982Z,22.25
2023-04-11T18:55:22.810Z,22.23
2023-04-11T18:57:50.488Z,22.23
2023-04-11T19:00:19.450Z,22.28
2023-04-11T19:02:46.141Z,22.27
2023-04-11T19:05:13.300Z,22.26
2023-04-11T19:07:40.070Z,22.23
2023-04-11T19:10:06.398Z,22.25
2023-04-11T19:12:32.716Z,22.23
2023-04-11T19:14:59.051Z,22.22
2023-04-11T19:17:25.421Z,22.25
2023-04-11T19:19:51.805Z,22.25
2023-04-11T19:22:18.185Z,22.23
2023-04-11T19:24:44.555Z,22.22
2023-04-11T19:27:10.922Z,22.25
2023-04-11T19:29:37.289Z,22.23
2023-04-11T19:32:03.691Z,22.19
2023-04-11T19:34:30.106Z,22.20
2023-04-11T19:36:56.469Z,22.17
2023-04-11T19:39:22.831Z,22.17
2023-04-11T19:41:49.181Z,22.14
2023-04-11T19:44:15.488Z,22.18
2023-04-11T19:46:41.837Z,22.14
2023-04-11T19:49:08.213Z,22.18
2023-04-11T19:51:34.606Z,22.14
2023-04-11T19:54:00.961Z,22.15
2023-04-11T19:56:27.337Z,22.07
2023-04-11T19:58:53.675Z,22.10
2023-04-11T20:01:20.147Z,22.13
2023-04-11T20:03:46.709Z,22.13
2023-04-11T20:06:13.244Z,22.12
2023-04-11T20:08:39.547Z,22.15
2023-04-11T20:11:05.926Z,22.14
2023-04-11T20:13:32.335Z,22.13
2023-04-11T20:15:58.646Z,22.07
2023-04-11T20:18:25.099Z,22.10
2023-04-11T20:20:51.411Z,22.12
2023-04-11T20:23:17.699Z,22.11
2023-04-11T20:25:44.039Z,22.12
2023-04-11T20:28:10.410Z,22.11
2023-04-11T20:30:36.812Z,22.08
2023-04-11T20:33:03.240Z,22.12
2023-04-11T20:35:29.661Z,22.13
2023-04-11T20:37:56.036Z,22.13
2023-04-11T20:40:22.428Z,22.10
2023-04-11T20:42:48.777Z,22.12
2023-04-11T20:45:15.121Z,22.11
2023-04-11T20:47:41.495Z,22.11
2023-04-11T20:50:07.882Z,22.08
2023-04-11T20:52:34.238Z,22.04
2023-04-11T20:55:00.539Z,22.07
2023-04-11T20:57:26.878Z,22.05
2023-04-11T20:59:53.228Z,22.08
2023-04-11T21:02:20.151Z,22.10
2023-04-11T21:04:46.675Z,22.10
2023-04-11T21:07:13.084Z,22.10
2023-04-11T21:09:39.519Z,22.08
2023-04-11T21:12:05.842Z,22.06
2023-04-11T21:14:32.140Z,22.08
2023-04-11T21:16:58.547Z,22.07
2023-04-11T21:19:25.036Z,22.08
2023-04-11T21:21:51.375Z,22.05
2023-04-11T21:24:17.748Z,22.09
2023-04-11T21:26:44.229Z,22.09
2023-04-11T21:29:11.995Z,22.13
2023-04-11T21:31:38.413Z,22.09
2023-04-11T21:34:04.761Z,22.10
2023-04-11T21:36:31.114Z,22.10
2023-04-11T21:38:57.432Z,22.12
2023-04-11T21:41:23.763Z,22.08
2023-04-11T21:43:50.062Z,22.06
2023-04-11T21:46:16.470Z,22.07
2023-04-11T21:48:42.828Z,22.05
2023-04-11T21:51:09.220Z,22.09
2023-04-11T21:53:35.531Z,22.07
2023-04-11T21:56:01.858Z,22.13
2023-04-11T21:58:29.845Z,22.13
2023-04-11T22:00:56.504Z,22.06
2023-04-11T22:03:23.277Z,22.07
2023-04-11T22:05:50.402Z,22.09
2023-04-11T22:08:16.815Z,22.03
2023-04-11T22:10:47.647Z,22.08
2023-04-11T22:13:14.596Z,22.09
2023-04-11T22:15:41.095Z,22.08
2023-04-11T22:18:07.439Z,22.08
2023-04-11T22:20:33.851Z,22.10
2023-04-11T22:23:00.156Z,22.06
2023-04-11T22:25:26.507Z,21.98
2023-04-11T22:27:52.853Z,22.05
2023-04-11T22:30:19.189Z,22.01
2023-04-11T22:32:45.570Z,22.04
2023-04-11T22:35:11.876Z,21.98
2023-04-11T22:37:38.192Z,22.05
2023-04-11T22:40:04.528Z,22.04
2023-04-11T22:42:30.940Z,22.03
2023-04-11T22:44:57.305Z,22.05
2023-04-11T22:47:23.692Z,22.04
2023-04-11T22:49:50.082Z,21.94
2023-04-11T22:52:16.447Z,22.02
2023-04-11T22:54:43.084Z,22.09
2023-04-11T22:57:09.677Z,21.99
2023-04-11T22:59:35.980Z,21.97
2023-04-11T23:02:02.373Z,22.00
2023-04-11T23:04:28.762Z,21.98
2023-04-11T23:06:55.109Z,22.02
2023-04-11T23:09:21.523Z,22.02
2023-04-11T23:11:47.879Z,21.97
2023-04-11T23:14:14.270Z,21.97
2023-04-11T23:16:40.711Z,21.93
2023-04-11T23:19:07.032Z,21.97
2023-04-11T23:21:33.351Z,21.93
2023-04-11T23:23:59.734Z,21.95
2023-04-11T23:26:26.088Z,21.92
2023-04-11T23:28:52.495Z,21.99
2023-04-11T23:31:18.932Z,21.95
2023-04-11T23:33:45.341Z,21.97
2023-04-11T23:36:11.671Z,22.00
2023-04-11T23:38:38.045Z,22.01
2023-04-11T23:41:04.393Z,21.96
2023-04-11T23:43:30.720Z,22.03
2023-04-11T23:45:57.125Z,21.98
2023-04-11T23:48:23.538Z,21.99
2023-04-11T23:50:49.946Z,21.99
2023-04-11T23:53:16.271Z,21.94
2023-04-11T23:55:42.567Z,22.00
2023-04-11T23:58:08.898Z,21.98
